Terminal Aerodrome Forecast
Issued by NWS

Home | Current Version | Previous Version | Graphics & Text | Print | Product List | Glossary On
Versions: 1 2 3 4 5 6 7 8 9 10 11 12 13 14 15 16
814
FTUS43 KGRB 212329
TAFATW
TAF
KATW 212329Z 2200/2224 30008KT P6SM SCT050 SCT090
     FM220300 26005KT P6SM SKC
     FM221500 23009KT P6SM SCT030
     FM221900 20013G20KT P6SM SCT040=

USA.gov is the U.S. government's official web portal to all federal, state and local government web resources and services.